createdAt,value
2023-03-22T00:00:16.958Z,100166.53
2023-03-22T00:02:45.515Z,100167.53
2023-03-22T00:05:13.662Z,100164.94
2023-03-22T00:07:43.531Z,100171.50
2023-03-22T00:10:12.410Z,100164.25
2023-03-22T00:12:40.601Z,100159.84
2023-03-22T00:15:11.166Z,100153.75
2023-03-22T00:17:42.132Z,100152.19
2023-03-22T00:20:11.453Z,100155.88
2023-03-22T00:22:39.775Z,100154.16
2023-03-22T00:25:08.443Z,100150.59
2023-03-22T00:27:36.666Z,100155.28
2023-03-22T00:30:05.909Z,100142.50
2023-03-22T00:32:35.735Z,100160.84
2023-03-22T00:35:06.257Z,100144.78
2023-03-22T00:37:38.536Z,100152.19
2023-03-22T00:40:08.830Z,100146.78
2023-03-22T00:42:37.301Z,100150.59
2023-03-22T00:45:06.910Z,100147.06
2023-03-22T00:47:36.347Z,100152.44
2023-03-22T00:50:07.695Z,100155.31
2023-03-22T00:52:36.076Z,100152.03
2023-03-22T00:55:04.156Z,100161.13
2023-03-22T00:57:32.268Z,100155.75
2023-03-22T01:00:07.660Z,100158.59
2023-03-22T01:02:35.957Z,100156.84
2023-03-22T01:05:06.724Z,100157.00
2023-03-22T01:07:38.225Z,100157.84
2023-03-22T01:10:07.290Z,100147.19
2023-03-22T01:12:35.929Z,100148.19
2023-03-22T01:15:04.653Z,100143.81
2023-03-22T01:17:32.798Z,100141.25
2023-03-22T01:20:00.946Z,100135.16
2023-03-22T01:22:30.483Z,100137.25
2023-03-22T01:24:58.544Z,100124.63
2023-03-22T01:27:26.851Z,100122.06
2023-03-22T01:29:55.087Z,100119.50
2023-03-22T01:32:23.354Z,100123.06
2023-03-22T01:34:52.247Z,100122.34
2023-03-22T01:37:21.970Z,100118.09
2023-03-22T01:39:51.400Z,100121.66
2023-03-22T01:42:21.071Z,100120.06
2023-03-22T01:45:33.714Z,100124.63
2023-03-22T01:48:06.360Z,100115.81
2023-03-22T01:50:34.685Z,100125.91
2023-03-22T01:53:05.292Z,100129.44
2023-03-22T01:55:35.251Z,100128.59
2023-03-22T01:58:04.501Z,100130.56
2023-03-22T02:00:33.888Z,100118.06
2023-03-22T02:03:02.207Z,100137.91
2023-03-22T02:05:31.840Z,100130.81
2023-03-22T02:08:01.104Z,100139.06
2023-03-22T02:10:29.692Z,100140.06
2023-03-22T02:13:30.558Z,100145.59
2023-03-22T02:16:12.380Z,100142.34
2023-03-22T02:19:00.300Z,100140.50
2023-03-22T02:21:43.607Z,100138.75
2023-03-22T02:24:32.890Z,100142.72
2023-03-22T02:27:28.730Z,100146.44
2023-03-22T02:30:10.245Z,100144.72
2023-03-22T02:33:02.696Z,100144.88
2023-03-22T02:35:43.106Z,100137.78
2023-03-22T02:38:59.505Z,100150.41
2023-03-22T02:41:41.369Z,100145.97
2023-03-22T02:44:16.142Z,100152.50
2023-03-22T02:46:47.609Z,100157.91
2023-03-22T02:49:22.850Z,100149.50
2023-03-22T02:52:01.092Z,100151.94
2023-03-22T02:54:39.266Z,100146.69
2023-03-22T02:57:14.260Z,100148.66
2023-03-22T02:59:44.502Z,100151.63
2023-03-22T03:02:18.276Z,100160.44
2023-03-22T03:04:49.353Z,100160.56
2023-03-22T03:07:21.829Z,100157.03
2023-03-22T03:09:55.500Z,100157.16
2023-03-22T03:12:26.555Z,100155.47
2023-03-22T03:14:57.757Z,100152.06
2023-03-22T03:17:39.973Z,100159.41
2023-03-22T03:20:24.287Z,100154.00
2023-03-22T03:23:13.676Z,100143.38
2023-03-22T03:25:49.791Z,100154.16
2023-03-22T03:28:30.518Z,100152.59
2023-03-22T03:31:03.799Z,100151.03
2023-03-22T03:33:36.380Z,100154.59
2023-03-22T03:36:09.509Z,100159.13
2023-03-22T03:38:39.210Z,100150.31
2023-03-22T03:41:12.476Z,100156.81
2023-03-22T03:43:43.480Z,100162.22
2023-03-22T03:46:12.030Z,100155.97
2023-03-22T03:48:44.167Z,100159.66
2023-03-22T03:51:13.550Z,100156.25
2023-03-22T03:53:41.592Z,100164.34
2023-03-22T03:56:11.718Z,100158.25
2023-03-22T03:58:40.887Z,100165.31
2023-03-22T04:01:09.077Z,100152.25
2023-03-22T04:03:37.841Z,100152.84
2023-03-22T04:06:06.622Z,100148.84
2023-03-22T04:08:34.717Z,100161.19
2023-03-22T04:11:03.128Z,100167.56
2023-03-22T04:13:32.545Z,100164.03
2023-03-22T04:16:02.223Z,100153.38
2023-03-22T04:18:30.334Z,100146.28
2023-03-22T04:20:58.610Z,100151.69
2023-03-22T04:23:26.686Z,100155.38
2023-03-22T04:25:54.820Z,100155.50
2023-03-22T04:28:24.046Z,100161.88
2023-03-22T04:30:54.403Z,100172.66
2023-03-22T04:33:23.082Z,100172.78
2023-03-22T04:35:56.777Z,100171.22
2023-03-22T04:38:26.126Z,100176.59
2023-03-22T04:40:55.382Z,100177.44
2023-03-22T04:43:23.574Z,100181.13
2023-03-22T04:45:55.026Z,100177.72
2023-03-22T04:48:24.381Z,100173.34
2023-03-22T04:50:53.463Z,100166.38
2023-03-22T04:53:27.453Z,100170.03
2023-03-22T04:55:57.097Z,100168.09
2023-03-22T04:58:25.500Z,100177.16
2023-03-22T05:00:55.125Z,100179.09
2023-03-22T05:03:23.634Z,100176.56
2023-03-22T05:05:54.606Z,100184.63
2023-03-22T05:08:24.944Z,100174.00
2023-03-22T05:10:53.414Z,100179.38
2023-03-22T05:13:22.701Z,100182.22
2023-03-22T05:15:51.818Z,100204.63
2023-03-22T05:18:24.645Z,100207.44
2023-03-22T05:20:54.944Z,100202.06
2023-03-22T05:23:23.952Z,100198.50
2023-03-22T05:25:53.715Z,100201.22
2023-03-22T05:28:22.777Z,100204.03
2023-03-22T05:30:51.483Z,100196.91
2023-03-22T05:33:22.684Z,100199.75
2023-03-22T05:35:51.198Z,100210.38
2023-03-22T05:38:19.492Z,100217.63
2023-03-22T05:40:47.611Z,100221.31
2023-03-22T05:43:16.209Z,100221.56
2023-03-22T05:45:45.732Z,100215.91
2023-03-22T05:48:13.943Z,100205.28
2023-03-22T05:50:43.720Z,100209.81
2023-03-22T05:53:12.387Z,100217.03
2023-03-22T05:55:40.426Z,100227.81
2023-03-22T05:58:09.147Z,100227.94
2023-03-22T06:00:37.432Z,100224.28
2023-03-22T06:03:05.706Z,100229.78
2023-03-22T06:05:36.493Z,100235.19
2023-03-22T06:08:06.175Z,100235.19
2023-03-22T06:10:34.253Z,100245.94
2023-03-22T06:13:02.430Z,100238.84
2023-03-22T06:15:30.572Z,100239.94
2023-03-22T06:17:58.890Z,100243.41
2023-03-22T06:20:27.257Z,100234.56
2023-03-22T06:22:55.460Z,100235.41
2023-03-22T06:25:24.905Z,100237.16
2023-03-22T06:27:52.953Z,100236.31
2023-03-22T06:30:21.781Z,100240.81
2023-03-22T06:32:49.867Z,100255.16
2023-03-22T06:35:18.096Z,100254.28
2023-03-22T06:37:46.501Z,100260.53
2023-03-22T06:40:14.763Z,100256.13
2023-03-22T06:42:44.261Z,100252.47
2023-03-22T06:45:14.666Z,100252.47
2023-03-22T06:47:42.940Z,100256.00
2023-03-22T06:50:11.949Z,100249.97
2023-03-22T06:52:40.133Z,100255.16
2023-03-22T06:55:09.058Z,100264.09
2023-03-22T06:57:37.180Z,100259.56
2023-03-22T07:00:08.355Z,100250.84
2023-03-22T07:02:37.014Z,100257.84
2023-03-22T07:05:05.869Z,100264.09
2023-03-22T07:07:34.160Z,100260.41
2023-03-22T07:10:02.369Z,100256.88
2023-03-22T07:12:30.682Z,100255.25
2023-03-22T07:14:59.293Z,100260.41
2023-03-22T07:17:28.748Z,100264.66
2023-03-22T07:19:57.293Z,100271.03
2023-03-22T07:22:25.907Z,100273.75
2023-03-22T07:24:58.337Z,100270.91
2023-03-22T07:27:27.536Z,100275.31
2023-03-22T07:29:55.775Z,100284.25
2023-03-22T07:32:23.876Z,100281.69
2023-03-22T07:34:53.354Z,100266.09
2023-03-22T07:37:22.435Z,100256.44
2023-03-22T07:39:50.670Z,100259.00
2023-03-22T07:42:18.790Z,100270.63
2023-03-22T07:44:49.736Z,100282.03
2023-03-22T07:47:27.223Z,100270.41
2023-03-22T07:50:04.061Z,100269.41
2023-03-22T07:52:32.491Z,100267.56
2023-03-22T07:55:00.776Z,100269.28
2023-03-22T07:57:28.912Z,100265.59
2023-03-22T07:59:57.679Z,100272.69
2023-03-22T08:02:25.829Z,100267.16
2023-03-22T08:04:56.418Z,100261.63
2023-03-22T08:07:26.360Z,100249.91
2023-03-22T08:09:54.610Z,100250.59
2023-03-22T08:12:22.763Z,100246.06
2023-03-22T08:14:52.861Z,100255.84
2023-03-22T08:17:21.129Z,100248.63
2023-03-22T08:19:50.050Z,100252.03
2023-03-22T08:22:18.141Z,100256.44
2023-03-22T08:24:47.566Z,100250.06
2023-03-22T08:27:15.688Z,100250.06
2023-03-22T08:29:44.155Z,100253.50
2023-03-22T08:32:12.588Z,100254.44
2023-03-22T08:34:41.271Z,100263.28
2023-03-22T08:37:10.596Z,100258.59
2023-03-22T08:39:40.959Z,100266.56
2023-03-22T08:42:10.874Z,100263.00
2023-03-22T08:44:39.028Z,100266.41
2023-03-22T08:47:07.170Z,100273.38
2023-03-22T08:49:35.716Z,100259.78
2023-03-22T08:52:04.335Z,100265.19
2023-03-22T08:54:34.621Z,100263.19
2023-03-22T08:57:03.438Z,100260.66
2023-03-22T08:59:33.148Z,100264.91
2023-03-22T09:02:01.640Z,100262.34
2023-03-22T09:04:29.879Z,100262.06
2023-03-22T09:06:57.949Z,100270.88
2023-03-22T09:09:26.211Z,100271.72
2023-03-22T09:11:54.413Z,100278.72
2023-03-22T09:14:22.512Z,100267.94
2023-03-22T09:16:52.061Z,100273.19
2023-03-22T09:19:20.597Z,100275.75
2023-03-22T09:21:49.992Z,100263.81
2023-03-22T09:24:18.346Z,100265.38
2023-03-22T09:26:46.660Z,100253.75
2023-03-22T09:29:15.309Z,100261.59
2023-03-22T09:31:44.635Z,100262.31
2023-03-22T09:34:14.091Z,100258.75
2023-03-22T09:36:42.422Z,100256.63
2023-03-22T09:39:10.480Z,100250.53
2023-03-22T09:41:45.291Z,100250.25
2023-03-22T09:44:16.545Z,100250.00
2023-03-22T09:46:48.921Z,100248.00
2023-03-22T09:49:23.062Z,100239.91
2023-03-22T09:51:52.943Z,100235.38
2023-03-22T09:54:28.088Z,100232.97
2023-03-22T09:57:01.296Z,100233.25
2023-03-22T09:59:40.947Z,100229.00
2023-03-22T10:02:28.522Z,100238.41
2023-03-22T10:05:04.765Z,100239.25
2023-03-22T10:07:41.822Z,100235.56
2023-03-22T10:10:17.885Z,100240.81
2023-03-22T10:12:54.599Z,100239.66
2023-03-22T10:15:29.874Z,100240.66
2023-03-22T10:18:00.604Z,100241.50
2023-03-22T10:20:40.661Z,100240.38
2023-03-22T10:23:15.610Z,100230.03
2023-03-22T10:25:44.771Z,100234.13
2023-03-22T10:28:19.356Z,100231.31
2023-03-22T10:30:53.462Z,100230.44
2023-03-22T10:33:30.888Z,100234.75
2023-03-22T10:36:02.215Z,100231.19
2023-03-22T10:38:31.729Z,100234.75
2023-03-22T10:41:01.386Z,100236.59
2023-03-22T10:43:33.553Z,100232.75
2023-03-22T10:46:04.239Z,100229.34
2023-03-22T10:48:36.271Z,100235.44
2023-03-22T10:51:06.478Z,100229.91
2023-03-22T10:53:40.133Z,100235.31
2023-03-22T10:56:14.122Z,100231.75
2023-03-22T10:58:42.918Z,100222.81
2023-03-22T11:01:13.221Z,100229.91
2023-03-22T11:03:43.747Z,100224.50
2023-03-22T11:06:15.477Z,100223.53
2023-03-22T11:08:46.727Z,100220.81
2023-03-22T11:11:18.854Z,100210.88
2023-03-22T11:13:52.500Z,100210.88
2023-03-22T11:16:21.515Z,100200.09
2023-03-22T11:18:49.747Z,100199.25
2023-03-22T11:21:23.218Z,100193.84
2023-03-22T11:23:57.647Z,100192.84
2023-03-22T11:26:34.760Z,100195.56
2023-03-22T11:29:14.780Z,100190.31
2023-03-22T11:31:56.248Z,100197.25
2023-03-22T11:34:27.170Z,100192.00
2023-03-22T11:37:00.443Z,100190.31
2023-03-22T11:39:30.413Z,100191.00
2023-03-22T11:42:01.575Z,100182.06
2023-03-22T11:44:35.450Z,100177.66
2023-03-22T11:47:05.728Z,100177.66
2023-03-22T11:49:43.417Z,100173.13
2023-03-22T11:52:17.629Z,100169.44
2023-03-22T11:54:47.326Z,100171.13
2023-03-22T11:57:19.252Z,100174.72
2023-03-22T11:59:49.983Z,100178.25
2023-03-22T12:02:24.523Z,100173.72
2023-03-22T12:05:00.671Z,100177.25
2023-03-22T12:07:33.858Z,100173.72
2023-03-22T12:10:04.175Z,100178.84
2023-03-22T12:12:37.130Z,100180.56
2023-03-22T12:15:14.307Z,100174.31
2023-03-22T12:17:48.353Z,100181.13
2023-03-22T12:20:22.789Z,100174.75
2023-03-22T12:22:55.285Z,100174.63
2023-03-22T12:25:26.675Z,100172.63
2023-03-22T12:27:57.413Z,100166.09
2023-03-22T12:30:27.810Z,100166.94
2023-03-22T12:33:02.657Z,100162.38
2023-03-22T12:35:35.365Z,100173.78
2023-03-22T12:38:12.725Z,100159.69
2023-03-22T12:40:42.766Z,100166.38
2023-03-22T12:43:18.531Z,100160.00
2023-03-22T12:45:53.323Z,100157.28
2023-03-22T12:48:31.940Z,100166.09
2023-03-22T12:51:05.541Z,100158.00
2023-03-22T12:53:42.360Z,100152.44
2023-03-22T12:56:13.934Z,100150.75
2023-03-22T12:58:45.374Z,100146.22
2023-03-22T13:01:23.158Z,100151.19
2023-03-22T13:03:54.875Z,100136.13
2023-03-22T13:06:55.565Z,100141.94
2023-03-22T13:09:40.560Z,100132.00
2023-03-22T13:12:33.225Z,100131.72
2023-03-22T13:15:05.196Z,100123.50
2023-03-22T13:17:43.962Z,100128.59
2023-03-22T13:20:30.876Z,100129.31
2023-03-22T13:23:27.472Z,100122.75
2023-03-22T13:26:06.678Z,100112.69
2023-03-22T13:28:38.258Z,100110.69
2023-03-22T13:31:07.623Z,100109.53
2023-03-22T13:33:38.750Z,100104.16
2023-03-22T13:36:09.976Z,100101.88
2023-03-22T13:38:42.540Z,100105.28
2023-03-22T13:41:22.951Z,100106.13
2023-03-22T13:43:53.050Z,100105.97
2023-03-22T13:46:47.820Z,100109.22
2023-03-22T13:49:32.745Z,100104.69
2023-03-22T13:52:07.190Z,100101.00
2023-03-22T13:54:42.282Z,100094.63
2023-03-22T13:57:38.715Z,100095.31
2023-03-22T14:00:22.400Z,100089.91
2023-03-22T14:02:51.990Z,100090.59
2023-03-22T14:05:23.969Z,100089.59
2023-03-22T14:07:56.235Z,100090.47
2023-03-22T14:10:27.059Z,100087.59
2023-03-22T14:13:00.943Z,100079.38
2023-03-22T14:15:35.534Z,100078.50
2023-03-22T14:18:08.119Z,100083.78
2023-03-22T14:20:38.311Z,100073.81
